Terminal Aerodrome Forecast
Issued by NWS Charleston, WV

Current Version | Previous Version | Text Only | Print | Product List | Glossary Off
Versions: 1 2 3 4 5 6 7 8 9 10 11 12 13 14 15 16 17 18 19 20 21 22 23 24

000
FTUS41 KRLX 251100
TAFEKN
TAF
KEKN 251129Z 2512/2612 16006KT P6SM -SHRA BKN060 WS020/18030KT
     FM251300 18009G15KT P6SM VCSH BKN050
     FM251600 19011G20KT P6SM BKN035
     FM252300 20007KT P6SM BKN035
     FM261100 19007KT P6SM SCT045=

USA.gov is the U.S. government's official web portal to all federal, state and local government web resources and services.